createdAt,value
2023-03-06T00:01:00.970Z,98930.64
2023-03-06T00:02:09.924Z,98930.45
2023-03-06T00:03:20.323Z,98929.30
2023-03-06T00:04:29.240Z,98927.58
2023-03-06T00:05:38.414Z,98932.64
2023-03-06T00:06:48.241Z,98930.72
2023-03-06T00:07:57.256Z,98926.36
2023-03-06T00:09:06.072Z,98923.64
2023-03-06T00:10:19.173Z,98927.23
2023-03-06T00:11:29.162Z,98929.16
2023-03-06T00:12:39.943Z,98932.79
2023-03-06T00:13:50.389Z,98932.64
2023-03-06T00:16:15.557Z,98914.13
2023-03-06T00:17:24.780Z,98910.27
2023-03-06T00:19:49.321Z,98909.00
2023-03-06T00:20:59.397Z,98914.71
2023-03-06T00:23:28.274Z,98910.25
2023-03-06T00:24:37.917Z,98928.19
2023-03-06T00:25:47.648Z,98920.98
2023-03-06T00:26:56.646Z,98923.47
2023-03-06T00:28:07.202Z,98920.67
2023-03-06T00:29:16.465Z,98917.19
2023-03-06T00:30:29.803Z,98919.91
2023-03-06T00:31:39.529Z,98916.42
2023-03-06T00:32:49.200Z,98925.20
2023-03-06T00:33:58.966Z,98919.34
2023-03-06T00:35:08.341Z,98922.14
2023-03-06T00:36:20.276Z,98918.65
2023-03-06T00:37:28.814Z,98924.06
2023-03-06T00:38:39.436Z,98928.58
2023-03-06T00:41:08.644Z,98921.14
2023-03-06T00:42:18.676Z,98923.56
2023-03-06T00:43:27.115Z,98925.52
2023-03-06T00:44:35.850Z,98931.95
2023-03-06T00:45:44.502Z,98931.30
2023-03-06T00:46:54.396Z,98928.42
2023-03-06T00:48:04.932Z,98925.70
2023-03-06T00:49:13.448Z,98926.50
2023-03-06T00:50:22.705Z,98919.45
2023-03-06T00:51:31.692Z,98926.23
2023-03-06T00:52:41.756Z,98923.30
2023-03-06T00:53:50.296Z,98918.92
2023-03-06T00:55:00.648Z,98921.64
2023-03-06T00:56:10.972Z,98921.80
2023-03-06T00:57:21.585Z,98922.13
2023-03-06T00:58:31.318Z,98915.78
2023-03-06T00:59:40.591Z,98919.72
2023-03-06T01:00:50.012Z,98916.80
2023-03-06T01:01:59.441Z,98915.50
2023-03-06T01:03:09.601Z,98929.14
2023-03-06T01:04:19.169Z,98932.59
2023-03-06T01:05:32.007Z,98935.92
2023-03-06T01:06:42.039Z,98930.94
2023-03-06T01:07:50.862Z,98927.16
2023-03-06T01:09:02.147Z,98931.37
2023-03-06T01:10:12.477Z,98937.14
2023-03-06T01:11:22.417Z,98929.80
2023-03-06T01:12:30.966Z,98931.09
2023-03-06T01:13:41.856Z,98930.06
2023-03-06T01:14:51.012Z,98924.52
2023-03-06T01:16:11.910Z,98933.51
2023-03-06T01:17:21.136Z,98928.22
2023-03-06T01:18:29.941Z,98931.20
2023-03-06T01:19:38.610Z,98923.43
2023-03-06T01:20:48.121Z,98932.23
2023-03-06T01:21:57.468Z,98930.28
2023-03-06T01:23:06.943Z,98922.00
2023-03-06T01:24:16.679Z,98928.38
2023-03-06T01:25:27.047Z,98924.16
2023-03-06T01:26:37.507Z,98929.81
2023-03-06T01:27:46.542Z,98928.45
2023-03-06T01:28:57.472Z,98934.98
2023-03-06T01:30:08.796Z,98930.55
2023-03-06T01:31:17.876Z,98929.70
2023-03-06T01:32:27.662Z,98927.69
2023-03-06T01:33:38.404Z,98923.98
2023-03-06T01:34:47.206Z,98925.41
2023-03-06T01:35:56.727Z,98929.52
2023-03-06T01:37:05.549Z,98924.93
2023-03-06T01:38:16.051Z,98924.30
2023-03-06T01:39:26.775Z,98920.09
2023-03-06T01:40:37.956Z,98921.44
2023-03-06T01:41:48.701Z,98915.16
2023-03-06T01:42:58.289Z,98917.66
2023-03-06T01:45:28.431Z,98909.42
2023-03-06T01:46:45.664Z,98916.85
2023-03-06T01:47:55.634Z,98907.23
2023-03-06T01:49:08.319Z,98916.81
2023-03-06T01:50:18.885Z,98912.30
2023-03-06T01:52:51.972Z,98900.08
2023-03-06T01:54:05.400Z,98901.30
2023-03-06T01:55:18.280Z,98896.79
2023-03-06T01:56:29.243Z,98907.28
2023-03-06T01:57:39.958Z,98906.36
2023-03-06T01:58:50.155Z,98905.14
2023-03-06T02:00:06.460Z,98903.91
2023-03-06T02:01:19.216Z,98903.55
2023-03-06T02:02:27.934Z,98904.20
2023-03-06T02:03:38.552Z,98892.75
2023-03-06T02:04:48.781Z,98898.11
2023-03-06T02:06:00.220Z,98900.83
2023-03-06T02:07:12.064Z,98901.71
2023-03-06T02:08:23.271Z,98882.41
2023-03-06T02:11:11.200Z,98897.52
2023-03-06T02:12:22.270Z,98896.34
2023-03-06T02:13:32.419Z,98901.55
2023-03-06T02:14:42.349Z,98891.41
2023-03-06T02:15:51.904Z,98898.42
2023-03-06T02:17:02.000Z,98890.49
2023-03-06T02:18:11.805Z,98901.63
2023-03-06T02:19:43.569Z,98897.11
2023-03-06T02:20:56.317Z,98896.27
2023-03-06T02:22:06.514Z,98897.95
2023-03-06T02:24:54.424Z,98901.09
2023-03-06T02:26:04.765Z,98892.05
2023-03-06T02:27:17.048Z,98898.27
2023-03-06T02:28:25.758Z,98886.92
2023-03-06T02:29:34.396Z,98886.20
2023-03-06T02:30:47.461Z,98896.78
2023-03-06T02:33:17.413Z,98888.25
2023-03-06T02:35:58.129Z,98888.17
2023-03-06T02:37:10.483Z,98890.26
2023-03-06T02:38:23.055Z,98890.41
2023-03-06T02:39:34.645Z,98896.63
2023-03-06T02:40:48.072Z,98898.42
2023-03-06T02:41:57.061Z,98892.26
2023-03-06T02:44:28.021Z,98884.73
2023-03-06T02:46:57.368Z,98889.98
2023-03-06T02:48:08.503Z,98886.05
2023-03-06T02:49:17.933Z,98891.33
2023-03-06T02:50:27.604Z,98888.69
2023-03-06T02:51:37.180Z,98887.92
2023-03-06T02:52:45.739Z,98891.64
2023-03-06T02:53:55.536Z,98889.92
2023-03-06T02:55:05.282Z,98888.20
2023-03-06T02:56:15.606Z,98889.00
2023-03-06T02:57:24.697Z,98890.69
2023-03-06T02:58:35.680Z,98878.35
2023-03-06T02:59:44.969Z,98884.64
2023-03-06T03:00:55.433Z,98890.08
2023-03-06T03:02:04.452Z,98885.56
2023-03-06T03:04:29.423Z,98876.68
2023-03-06T03:05:38.537Z,98882.41
2023-03-06T03:06:49.373Z,98887.61
2023-03-06T03:07:58.671Z,98880.33
2023-03-06T03:09:11.552Z,98881.73
2023-03-06T03:10:21.098Z,98880.65
2023-03-06T03:11:30.420Z,98884.86
2023-03-06T03:12:41.896Z,98890.30
2023-03-06T03:13:50.509Z,98888.73
2023-03-06T03:15:01.671Z,98883.20
2023-03-06T03:16:16.180Z,98886.92
2023-03-06T03:17:25.439Z,98886.20
2023-03-06T03:18:35.775Z,98896.70
2023-03-06T03:19:44.373Z,98885.12
2023-03-06T03:20:55.414Z,98891.33
2023-03-06T03:22:05.654Z,98889.61
2023-03-06T03:23:15.288Z,98888.61
2023-03-06T03:24:24.849Z,98885.12
2023-03-06T03:25:34.595Z,98886.92
2023-03-06T03:26:47.302Z,98882.64
2023-03-06T03:27:58.529Z,98894.86
2023-03-06T03:29:10.284Z,98885.41
2023-03-06T03:30:19.566Z,98882.77
2023-03-06T03:31:28.192Z,98885.36
2023-03-06T03:32:37.582Z,98889.77
2023-03-06T03:33:47.688Z,98890.64
2023-03-06T03:34:57.315Z,98885.28
2023-03-06T03:36:08.747Z,98885.12
2023-03-06T03:37:19.930Z,98885.05
2023-03-06T03:38:30.716Z,98888.53
2023-03-06T03:39:39.801Z,98888.53
2023-03-06T03:40:49.038Z,98886.92
2023-03-06T03:43:13.653Z,98874.95
2023-03-06T03:44:23.498Z,98883.41
2023-03-06T03:45:32.058Z,98885.12
2023-03-06T03:46:41.428Z,98887.84
2023-03-06T03:47:52.249Z,98891.13
2023-03-06T03:49:02.390Z,98888.17
2023-03-06T03:50:12.453Z,98887.25
2023-03-06T03:51:22.085Z,98888.94
2023-03-06T03:52:32.520Z,98893.95
2023-03-06T03:53:42.060Z,98892.88
2023-03-06T03:54:50.895Z,98889.42
2023-03-06T03:55:59.737Z,98888.66
2023-03-06T03:57:09.418Z,98890.66
2023-03-06T03:58:20.291Z,98889.17
2023-03-06T03:59:30.830Z,98894.78
2023-03-06T04:01:58.942Z,98891.33
2023-03-06T04:03:07.594Z,98892.00
2023-03-06T04:04:19.118Z,98897.36
2023-03-06T04:06:43.157Z,98892.80
2023-03-06T04:07:52.277Z,98890.66
2023-03-06T04:09:01.955Z,98894.95
2023-03-06T04:10:13.953Z,98897.59
2023-03-06T04:11:24.065Z,98901.08
2023-03-06T04:12:32.908Z,98902.72
2023-03-06T04:14:58.625Z,98895.94
2023-03-06T04:17:24.208Z,98893.91
2023-03-06T04:18:33.816Z,98897.93
2023-03-06T04:19:44.568Z,98902.30
2023-03-06T04:20:55.240Z,98908.58
2023-03-06T04:22:04.888Z,98906.78
2023-03-06T04:23:15.564Z,98908.50
2023-03-06T04:25:41.115Z,98904.48
2023-03-06T04:26:51.755Z,98905.06
2023-03-06T04:28:00.591Z,98901.57
2023-03-06T04:29:10.556Z,98907.62
2023-03-06T04:30:20.503Z,98911.06
2023-03-06T04:31:30.362Z,98908.42
2023-03-06T04:32:40.324Z,98911.91
2023-03-06T04:33:50.444Z,98909.27
2023-03-06T04:35:00.458Z,98913.64
2023-03-06T04:36:27.376Z,98911.91
2023-03-06T04:37:38.870Z,98912.87
2023-03-06T04:38:49.122Z,98920.84
2023-03-06T04:39:58.514Z,98920.00
2023-03-06T04:41:07.312Z,98915.55
2023-03-06T04:42:17.239Z,98918.08
2023-03-06T04:43:26.146Z,98921.56
2023-03-06T04:44:37.672Z,98920.80
2023-03-06T04:45:47.496Z,98918.92
2023-03-06T04:48:17.631Z,98914.84
2023-03-06T04:49:27.091Z,98922.41
2023-03-06T04:50:38.657Z,98914.48
2023-03-06T04:51:47.638Z,98930.34
2023-03-06T04:52:56.375Z,98921.88
2023-03-06T04:54:05.772Z,98930.80
2023-03-06T04:56:32.337Z,98928.66
2023-03-06T04:57:43.156Z,98929.00
2023-03-06T04:58:52.144Z,98924.52
2023-03-06T05:00:04.287Z,98931.64
2023-03-06T05:02:48.932Z,98924.21
2023-03-06T05:03:57.391Z,98934.52
2023-03-06T05:05:07.526Z,98932.79
2023-03-06T05:06:17.618Z,98933.52
2023-03-06T05:08:41.910Z,98926.70
2023-03-06T05:09:51.514Z,98941.98
2023-03-06T05:11:01.851Z,98933.78
2023-03-06T05:12:10.563Z,98941.48
2023-03-06T05:13:19.401Z,98946.08
2023-03-06T05:14:30.384Z,98946.16
2023-03-06T05:15:41.916Z,98947.92
2023-03-06T05:16:50.980Z,98943.64
2023-03-06T05:17:59.708Z,98946.43
2023-03-06T05:19:08.240Z,98945.44
2023-03-06T05:20:24.586Z,98945.44
2023-03-06T05:21:34.791Z,98952.44
2023-03-06T05:22:45.554Z,98951.48
2023-03-06T05:23:54.265Z,98951.30
2023-03-06T05:25:04.342Z,98955.59
2023-03-06T05:26:15.537Z,98954.44
2023-03-06T05:27:24.127Z,98953.36
2023-03-06T05:28:33.653Z,98951.33
2023-03-06T05:29:42.557Z,98961.86
2023-03-06T05:30:52.273Z,98954.92
2023-03-06T05:32:01.451Z,98958.49
2023-03-06T05:33:10.112Z,98961.98
2023-03-06T05:34:18.838Z,98958.41
2023-03-06T05:35:27.683Z,98960.14
2023-03-06T05:36:38.018Z,98959.27
2023-03-06T05:37:47.154Z,98965.50
2023-03-06T05:38:57.068Z,98967.50
2023-03-06T05:40:09.386Z,98969.42
2023-03-06T05:42:33.942Z,98963.63
2023-03-06T05:43:44.277Z,98973.94
2023-03-06T05:44:53.096Z,98973.94
2023-03-06T05:46:06.982Z,98973.86
2023-03-06T05:47:17.292Z,98974.63
2023-03-06T05:48:25.693Z,98973.86
2023-03-06T05:49:36.532Z,98979.08
2023-03-06T05:50:46.193Z,98976.35
2023-03-06T05:51:54.597Z,98970.22
2023-03-06T05:53:04.413Z,98970.14
2023-03-06T05:54:13.956Z,98972.63
2023-03-06T05:55:23.923Z,98974.28
2023-03-06T05:56:33.088Z,98969.72
2023-03-06T05:57:42.197Z,98971.28
2023-03-06T05:58:53.200Z,98975.50
2023-03-06T06:00:04.502Z,98970.82
2023-03-06T06:02:34.687Z,98976.84
2023-03-06T06:03:43.867Z,98975.31
2023-03-06T06:04:54.651Z,98981.14
2023-03-06T06:06:10.135Z,98968.55
2023-03-06T06:08:33.676Z,98983.91
2023-03-06T06:09:45.429Z,98977.68
2023-03-06T06:10:54.401Z,98975.41
2023-03-06T06:12:04.120Z,98968.94
2023-03-06T06:13:13.453Z,98978.44
2023-03-06T06:14:22.900Z,98977.26
2023-03-06T06:15:32.283Z,98966.41
2023-03-06T06:16:42.488Z,98975.83
2023-03-06T06:17:52.002Z,98970.98
2023-03-06T06:19:01.642Z,98973.59
2023-03-06T06:20:12.110Z,98969.09
2023-03-06T06:22:38.063Z,98956.95
2023-03-06T06:23:47.643Z,98965.77
2023-03-06T06:24:57.172Z,98968.05
2023-03-06T06:26:08.096Z,98973.55
2023-03-06T06:27:22.614Z,98974.63
2023-03-06T06:28:32.964Z,98975.73
2023-03-06T06:29:41.793Z,98980.23
2023-03-06T06:30:50.485Z,98985.58
2023-03-06T06:32:00.377Z,98987.31
2023-03-06T06:33:08.864Z,98982.59
2023-03-06T06:34:18.862Z,98989.78
2023-03-06T06:35:27.983Z,98989.48
2023-03-06T06:36:37.446Z,98983.23
2023-03-06T06:37:47.009Z,98994.88
2023-03-06T06:38:55.724Z,98988.52
2023-03-06T06:40:06.849Z,98995.14
2023-03-06T06:42:38.259Z,98994.35
2023-03-06T06:43:42.142Z,98996.28
2023-03-06T06:44:52.071Z,98998.70
2023-03-06T06:46:24.259Z,99004.42
2023-03-06T06:47:28.411Z,99010.94
2023-03-06T06:48:23.918Z,99001.44
2023-03-06T06:52:13.196Z,99020.29
2023-03-06T06:54:38.119Z,99022.77
2023-03-06T06:57:02.973Z,99017.44
2023-03-06T06:58:11.639Z,99026.23
2023-03-06T06:59:24.150Z,99039.89
2023-03-06T07:00:33.480Z,99030.34
2023-03-06T07:01:43.760Z,99031.44
2023-03-06T07:02:52.262Z,99036.88
2023-03-06T07:04:01.471Z,99035.66
2023-03-06T07:05:11.533Z,99031.46
2023-03-06T07:06:21.063Z,99030.70
2023-03-06T07:07:30.715Z,99030.84
2023-03-06T07:08:39.423Z,99030.84
2023-03-06T07:09:48.508Z,99042.40
2023-03-06T07:10:59.388Z,99038.88
2023-03-06T07:12:09.031Z,99038.78
2023-03-06T07:13:18.754Z,99044.96
2023-03-06T07:14:28.880Z,99043.41
2023-03-06T07:15:37.491Z,99046.06
2023-03-06T07:16:47.037Z,99050.73
2023-03-06T07:19:11.105Z,99046.98
2023-03-06T07:20:21.584Z,99049.50
2023-03-06T07:21:30.345Z,99049.59
2023-03-06T07:23:57.095Z,99040.46
2023-03-06T07:25:07.642Z,99048.95
2023-03-06T07:26:17.077Z,99064.85
2023-03-06T07:27:26.538Z,99054.25
2023-03-06T07:28:49.804Z,99048.95
2023-03-06T07:31:01.913Z,99055.48
2023-03-06T07:32:12.063Z,99058.63
2023-03-06T07:34:37.117Z,99059.39
2023-03-06T07:35:46.868Z,99067.03
2023-03-06T07:36:57.719Z,99065.94
2023-03-06T07:38:06.603Z,99065.86
2023-03-06T07:40:31.129Z,99060.19
2023-03-06T07:41:40.150Z,99076.62
2023-03-06T07:44:04.725Z,99072.72
2023-03-06T07:45:14.520Z,99071.53
2023-03-06T07:46:24.478Z,99072.33
2023-03-06T07:47:33.888Z,99070.60
2023-03-06T07:48:43.659Z,99069.59
2023-03-06T07:49:57.506Z,99071.16
2023-03-06T07:52:25.720Z,99066.16
2023-03-06T07:54:50.022Z,99076.52
2023-03-06T07:55:59.095Z,99079.41
2023-03-06T07:57:08.409Z,99079.41
2023-03-06T07:58:16.905Z,99074.58
2023-03-06T07:59:26.627Z,99080.52
2023-03-06T08:00:35.273Z,99089.06
2023-03-06T08:01:45.297Z,99085.27
2023-03-06T08:04:09.088Z,99079.53
2023-03-06T08:05:19.820Z,99087.70
2023-03-06T08:06:30.128Z,99090.22
2023-03-06T08:09:01.305Z,99091.31
2023-03-06T08:10:14.360Z,99090.08
2023-03-06T08:12:46.673Z,99090.53
2023-03-06T08:13:57.556Z,99096.03
2023-03-06T08:15:07.919Z,99097.63
2023-03-06T08:16:21.198Z,99097.47
2023-03-06T08:17:29.698Z,99102.86
2023-03-06T08:18:41.345Z,99103.87
2023-03-06T08:19:59.749Z,99099.41
2023-03-06T08:21:11.710Z,99097.72
2023-03-06T08:22:20.605Z,99105.76
2023-03-06T08:23:29.575Z,99105.30
2023-03-06T08:24:38.330Z,99100.13
2023-03-06T08:27:06.015Z,99106.85
2023-03-06T08:28:14.908Z,99108.25
2023-03-06T08:29:24.884Z,99115.44
2023-03-06T08:30:33.978Z,99104.75
2023-03-06T08:31:45.205Z,99112.62
2023-03-06T08:32:55.715Z,99103.19
2023-03-06T08:34:16.324Z,99102.09
2023-03-06T08:35:24.867Z,99111.52
2023-03-06T08:36:34.117Z,99120.16
2023-03-06T08:37:43.160Z,99110.43
2023-03-06T08:38:53.534Z,99112.16
2023-03-06T08:41:20.688Z,99116.49
2023-03-06T08:42:29.400Z,99113.46
2023-03-06T08:43:37.939Z,99124.95
2023-03-06T08:44:46.456Z,99116.83
2023-03-06T08:45:58.186Z,99115.02
2023-03-06T08:48:23.188Z,99116.79
2023-03-06T08:49:32.435Z,99123.44
2023-03-06T08:50:41.603Z,99124.15
2023-03-06T08:51:51.211Z,99125.92
2023-03-06T08:53:00.104Z,99129.03
2023-03-06T08:54:12.430Z,99123.81
2023-03-06T08:55:22.067Z,99127.17
2023-03-06T08:56:33.775Z,99132.23
2023-03-06T08:57:43.468Z,99131.30
2023-03-06T08:58:53.858Z,99127.86
2023-03-06T09:00:06.796Z,99127.86
2023-03-06T09:01:19.526Z,99129.58
2023-03-06T09:02:29.016Z,99129.50
2023-03-06T09:04:53.639Z,99127.92
2023-03-06T09:07:17.340Z,99129.27
2023-03-06T09:08:25.844Z,99138.63
2023-03-06T09:09:35.069Z,99136.06
2023-03-06T09:10:54.301Z,99129.91
2023-03-06T09:12:04.057Z,99130.92
2023-03-06T09:13:12.992Z,99130.67
2023-03-06T09:14:21.835Z,99127.86
2023-03-06T09:15:30.566Z,99132.15
2023-03-06T09:16:39.938Z,99134.26
2023-03-06T09:17:49.018Z,99133.88
2023-03-06T09:18:58.766Z,99139.88
2023-03-06T09:20:10.663Z,99137.91
2023-03-06T09:21:21.483Z,99137.15
2023-03-06T09:22:30.246Z,99139.72
2023-03-06T09:23:40.259Z,99144.77
2023-03-06T09:24:49.378Z,99135.62
2023-03-06T09:25:59.395Z,99138.14
2023-03-06T09:27:08.303Z,99134.78
2023-03-06T09:28:17.436Z,99134.16
2023-03-06T09:29:26.289Z,99137.34
2023-03-06T09:31:50.942Z,99134.22
2023-03-06T09:32:59.946Z,99140.25
2023-03-06T09:34:09.063Z,99141.02
2023-03-06T09:35:18.940Z,99145.14
2023-03-06T09:36:27.743Z,99145.05
2023-03-06T09:38:52.815Z,99144.66
2023-03-06T09:42:51.007Z,99144.17
2023-03-06T09:44:07.870Z,99146.47
2023-03-06T09:46:47.603Z,99149.98
2023-03-06T09:49:35.100Z,99150.42
2023-03-06T09:50:47.712Z,99144.84
2023-03-06T09:52:13.018Z,99145.86
2023-03-06T09:55:04.894Z,99145.29
2023-03-06T09:56:23.944Z,99150.59
2023-03-06T10:00:21.249Z,99146.57
2023-03-06T10:01:37.205Z,99149.70
2023-03-06T10:06:15.925Z,99147.41
2023-03-06T10:07:37.848Z,99150.41
2023-03-06T10:08:53.661Z,99148.61
2023-03-06T10:10:06.632Z,99144.84
2023-03-06T10:12:38.192Z,99147.54
2023-03-06T10:15:20.484Z,99138.70
2023-03-06T10:16:33.805Z,99153.95
2023-03-06T10:17:43.877Z,99143.42
2023-03-06T10:20:24.395Z,99138.79
2023-03-06T10:21:49.411Z,99150.41
2023-03-06T10:24:50.308Z,99141.88
2023-03-06T10:27:34.321Z,99143.91
2023-03-06T10:28:46.925Z,99151.43
2023-03-06T10:30:26.584Z,99149.80
2023-03-06T10:31:38.720Z,99149.63
2023-03-06T10:34:38.042Z,99142.36
2023-03-06T10:35:53.332Z,99149.03
2023-03-06T10:38:37.855Z,99142.71
2023-03-06T10:41:31.951Z,99142.09
2023-03-06T10:44:09.079Z,99140.84
2023-03-06T10:46:44.884Z,99134.33
2023-03-06T10:49:31.546Z,99131.11
2023-03-06T10:50:40.372Z,99142.20
2023-03-06T10:53:23.760Z,99136.52
2023-03-06T10:54:42.191Z,99138.91
2023-03-06T10:55:58.234Z,99135.23
2023-03-06T10:57:22.896Z,99139.61
2023-03-06T11:01:21.957Z,99137.98
2023-03-06T11:02:40.682Z,99143.95
2023-03-06T11:03:49.604Z,99143.02
2023-03-06T11:07:58.802Z,99133.42
2023-03-06T11:10:35.962Z,99135.14
2023-03-06T11:13:05.227Z,99138.42
2023-03-06T11:15:33.810Z,99136.70
2023-03-06T11:16:55.114Z,99137.34
2023-03-06T11:18:07.888Z,99136.59
2023-03-06T11:23:46.977Z,99132.97
2023-03-06T11:26:21.735Z,99130.75
2023-03-06T11:28:49.643Z,99139.51
2023-03-06T11:31:20.767Z,99128.95
2023-03-06T11:34:16.921Z,99141.83
2023-03-06T11:35:35.710Z,99139.51
2023-03-06T11:36:55.964Z,99135.30
2023-03-06T11:39:47.101Z,99134.33
2023-03-06T11:40:59.487Z,99133.78
2023-03-06T11:42:17.662Z,99137.31
2023-03-06T11:45:10.579Z,99137.44
2023-03-06T11:48:01.077Z,99130.41
2023-03-06T11:49:28.676Z,99137.73
2023-03-06T11:50:44.297Z,99134.52
2023-03-06T11:51:56.539Z,99130.69
2023-03-06T11:53:08.965Z,99135.42
2023-03-06T11:56:03.432Z,99128.17
2023-03-06T11:57:25.023Z,99139.54
2023-03-06T11:58:43.756Z,99141.88
2023-03-06T12:01:44.872Z,99129.22
2023-03-06T12:04:57.215Z,99131.52
2023-03-06T12:09:16.147Z,99135.14
2023-03-06T12:10:47.775Z,99147.89
2023-03-06T12:12:08.138Z,99138.99
2023-03-06T12:13:27.290Z,99143.16
2023-03-06T12:14:46.461Z,99141.20
2023-03-06T12:17:47.195Z,99140.53
2023-03-06T12:20:24.639Z,99145.82
2023-03-06T12:21:47.338Z,99149.61
2023-03-06T12:24:52.060Z,99141.46
2023-03-06T12:26:04.877Z,99149.17
2023-03-06T12:27:29.695Z,99150.11
2023-03-06T12:30:35.567Z,99156.98
2023-03-06T12:33:30.610Z,99145.42
2023-03-06T12:40:02.444Z,99146.53
2023-03-06T12:43:05.235Z,99138.89
2023-03-06T12:47:31.882Z,99148.67
2023-03-06T12:48:45.593Z,99146.17
2023-03-06T12:49:58.968Z,99149.94
2023-03-06T12:51:11.668Z,99151.48
2023-03-06T12:53:41.604Z,99143.86
2023-03-06T12:54:51.382Z,99145.23
2023-03-06T12:56:03.469Z,99153.20
2023-03-06T12:57:16.425Z,99143.52
2023-03-06T12:58:31.890Z,99141.70
2023-03-06T12:59:49.071Z,99145.99
2023-03-06T13:01:08.428Z,99145.82
2023-03-06T13:02:48.389Z,99147.22
2023-03-06T13:04:01.177Z,99146.11
2023-03-06T13:05:29.036Z,99138.14
2023-03-06T13:08:24.162Z,99139.93
2023-03-06T13:11:40.812Z,99143.70
2023-03-06T13:13:05.213Z,99147.80
2023-03-06T13:15:46.915Z,99137.69
2023-03-06T13:18:26.994Z,99141.46
2023-03-06T13:19:35.530Z,99146.25
2023-03-06T13:20:46.710Z,99139.83
2023-03-06T13:22:00.547Z,99141.55
2023-03-06T13:24:55.013Z,99141.38
2023-03-06T13:26:27.229Z,99147.02
2023-03-06T13:27:47.244Z,99140.78
2023-03-06T13:28:57.590Z,99146.02
2023-03-06T13:30:28.606Z,99146.86
2023-03-06T13:31:40.942Z,99149.34
2023-03-06T13:32:55.463Z,99151.77
2023-03-06T13:34:08.367Z,99143.94
2023-03-06T13:35:33.981Z,99145.48
2023-03-06T13:37:59.298Z,99144.55
2023-03-06T13:39:12.009Z,99150.55
2023-03-06T13:41:59.457Z,99133.92
2023-03-06T13:43:12.274Z,99145.82
2023-03-06T13:44:27.844Z,99145.58
2023-03-06T13:47:04.611Z,99137.66
2023-03-06T13:49:46.454Z,99145.91
2023-03-06T13:50:55.852Z,99156.03
2023-03-06T13:52:12.088Z,99156.81
2023-03-06T13:53:48.225Z,99155.94
2023-03-06T13:57:06.515Z,99152.77
2023-03-06T13:58:46.775Z,99147.21
2023-03-06T14:01:55.312Z,99149.23
2023-03-06T14:03:25.651Z,99150.71
2023-03-06T14:05:54.007Z,99144.52
2023-03-06T14:07:13.346Z,99156.54
2023-03-06T14:08:33.868Z,99152.16
2023-03-06T14:13:55.285Z,99145.34
2023-03-06T14:16:43.839Z,99150.13
2023-03-06T14:19:12.344Z,99161.36
2023-03-06T14:20:26.273Z,99154.66
2023-03-06T14:21:56.492Z,99156.38
2023-03-06T14:26:50.904Z,99159.20
2023-03-06T14:28:12.400Z,99162.28
2023-03-06T14:29:25.514Z,99167.67
2023-03-06T14:30:35.150Z,99159.80
2023-03-06T14:31:44.132Z,99161.61
2023-03-06T14:32:55.662Z,99160.64
2023-03-06T14:34:11.437Z,99170.59
2023-03-06T14:35:31.777Z,99173.34
2023-03-06T14:36:46.491Z,99168.20
2023-03-06T14:38:04.885Z,99160.15
2023-03-06T14:40:38.738Z,99162.89
2023-03-06T14:43:24.038Z,99160.41
2023-03-06T14:45:59.071Z,99169.83
2023-03-06T14:47:35.959Z,99171.27
2023-03-06T14:48:47.606Z,99171.61
2023-03-06T14:50:21.084Z,99171.70
2023-03-06T14:52:49.070Z,99180.37
2023-03-06T14:55:20.385Z,99172.13
2023-03-06T14:57:51.174Z,99171.81
2023-03-06T14:59:07.795Z,99182.94
2023-03-06T15:00:21.387Z,99177.63
2023-03-06T15:01:42.776Z,99182.00
2023-03-06T15:02:53.945Z,99187.23
2023-03-06T15:04:24.795Z,99185.33
2023-03-06T15:05:35.195Z,99182.76
2023-03-06T15:08:03.565Z,99183.80
2023-03-06T15:09:19.974Z,99189.53
2023-03-06T15:10:31.667Z,99188.69
2023-03-06T15:12:02.214Z,99188.59
2023-03-06T15:14:41.660Z,99190.05
2023-03-06T15:18:39.065Z,99182.08
2023-03-06T15:21:18.853Z,99177.64
2023-03-06T15:23:57.630Z,99190.48
2023-03-06T15:25:27.496Z,99184.91
2023-03-06T15:26:37.683Z,99194.52
2023-03-06T15:29:13.726Z,99189.19
2023-03-06T15:30:35.076Z,99193.49
2023-03-06T15:31:45.428Z,99197.93
2023-03-06T15:33:17.905Z,99200.35
2023-03-06T15:34:28.249Z,99194.02
2023-03-06T15:36:57.772Z,99193.05
2023-03-06T15:38:41.517Z,99195.38
2023-03-06T15:41:25.820Z,99194.83
2023-03-06T15:42:35.866Z,99203.44
2023-03-06T15:43:44.520Z,99200.92
2023-03-06T15:46:11.585Z,99209.59
2023-03-06T15:47:22.305Z,99203.33
2023-03-06T15:48:31.157Z,99203.24
2023-03-06T15:49:40.508Z,99203.16
2023-03-06T15:52:09.737Z,99204.28
2023-03-06T15:53:19.960Z,99207.53
2023-03-06T15:54:29.132Z,99208.47
2023-03-06T15:55:38.672Z,99210.37
2023-03-06T15:56:50.458Z,99213.96
2023-03-06T15:58:05.060Z,99207.89
2023-03-06T16:00:40.710Z,99210.10
2023-03-06T16:01:50.629Z,99218.70
2023-03-06T16:03:01.177Z,99215.42
2023-03-06T16:04:09.611Z,99219.36
2023-03-06T16:05:19.935Z,99222.16
2023-03-06T16:06:29.581Z,99224.06
2023-03-06T16:07:39.924Z,99224.99
2023-03-06T16:10:06.341Z,99224.50
2023-03-06T16:12:35.872Z,99222.25
2023-03-06T16:13:46.420Z,99231.67
2023-03-06T16:14:55.342Z,99238.84
2023-03-06T16:16:04.989Z,99231.67
2023-03-06T16:17:14.896Z,99234.33
2023-03-06T16:18:23.455Z,99245.12
2023-03-06T16:19:31.980Z,99239.19
2023-03-06T16:20:41.717Z,99239.27
2023-03-06T16:21:51.555Z,99242.23
2023-03-06T16:23:00.525Z,99237.18
2023-03-06T16:24:10.307Z,99234.70
2023-03-06T16:25:20.392Z,99238.36
2023-03-06T16:26:32.655Z,99239.47
2023-03-06T16:27:48.082Z,99239.72
2023-03-06T16:28:56.802Z,99239.85
2023-03-06T16:30:07.705Z,99237.78
2023-03-06T16:31:16.391Z,99239.89
2023-03-06T16:33:42.039Z,99243.55
2023-03-06T16:34:50.750Z,99240.48
2023-03-06T16:36:00.912Z,99241.11
2023-03-06T16:37:13.835Z,99244.31
2023-03-06T16:38:22.341Z,99245.95
2023-03-06T16:39:31.890Z,99245.58
2023-03-06T16:41:57.012Z,99239.72
2023-03-06T16:44:21.023Z,99247.42
2023-03-06T16:45:30.815Z,99249.88
2023-03-06T16:46:42.652Z,99247.13
2023-03-06T16:47:52.764Z,99250.63
2023-03-06T16:49:02.179Z,99248.86
2023-03-06T16:50:29.114Z,99246.13
2023-03-06T16:51:40.175Z,99247.67
2023-03-06T16:52:50.572Z,99247.89
2023-03-06T16:53:59.741Z,99243.93
2023-03-06T16:56:25.160Z,99237.77
2023-03-06T16:57:35.248Z,99243.92
2023-03-06T16:58:45.304Z,99237.70
2023-03-06T16:59:54.352Z,99242.08
2023-03-06T17:01:03.436Z,99245.81
2023-03-06T17:02:12.354Z,99237.31
2023-03-06T17:03:21.385Z,99247.20
2023-03-06T17:04:30.973Z,99242.86
2023-03-06T17:06:56.076Z,99238.16
2023-03-06T17:08:05.421Z,99241.66
2023-03-06T17:09:13.963Z,99242.19
2023-03-06T17:10:24.656Z,99243.75
2023-03-06T17:11:37.826Z,99242.19
2023-03-06T17:12:46.371Z,99240.09
2023-03-06T17:13:57.116Z,99244.31
2023-03-06T17:15:08.427Z,99241.42
2023-03-06T17:17:34.252Z,99235.74
2023-03-06T17:18:46.547Z,99234.50
2023-03-06T17:21:11.013Z,99237.22
2023-03-06T17:22:20.254Z,99239.48
2023-03-06T17:23:30.452Z,99240.13
2023-03-06T17:24:39.039Z,99245.10
2023-03-06T17:25:48.313Z,99241.27
2023-03-06T17:26:57.913Z,99241.36
2023-03-06T17:28:07.854Z,99243.70
2023-03-06T17:29:16.607Z,99248.85
2023-03-06T17:30:27.511Z,99248.93
2023-03-06T17:31:36.179Z,99245.64
2023-03-06T17:32:45.078Z,99241.27
2023-03-06T17:34:01.232Z,99247.49
2023-03-06T17:36:29.989Z,99234.50
2023-03-06T17:37:38.886Z,99238.69
2023-03-06T17:38:47.727Z,99249.30
2023-03-06T17:39:56.347Z,99249.30
2023-03-06T17:41:07.388Z,99245.00